Time;durP1;ratioP1;P1;durP2;ratioP2;P2;SDS_P1;SDS_P2;PMS_P1;PMS_P2;Temp;Humidity;BMP_temperature;BMP_pressure;BME280_temperature;BME280_humidity;BME280_pressure;Samples;Min_cycle;Max_cycle;Signal;HPM_P1;HPM_P2
2023/08/04 00:00:30;;;;;;;;;;;;;;;27.24;50.66;94259.41;5171627;22;19919;-78
2023/08/04 00:02:32;;;;;;;;;;;;;;;27.19;50.65;94257.50;5190637;22;19965;-82
2023/08/04 00:04:34;;;;;;;;;;;;;;;27.17;50.77;94259.66;5189014;22;20358;-77
2023/08/04 00:06:35;;;;;;;;;;;;;;;27.13;51.01;94263.97;5189562;22;19926;-78
2023/08/04 00:08:37;;;;;;;;;;;;;;;27.10;50.90;94259.13;5161592;23;20355;-79
2023/08/04 00:10:38;;;;;;;;;;;;;;;27.09;50.93;94261.03;5162811;22;19953;-82
2023/08/04 00:12:40;;;;;;;;;;;;;;;27.10;50.61;94254.56;5165489;23;20300;-82
2023/08/04 00:14:42;;;;;;;;;;;;;;;27.10;50.52;94257.28;5191203;22;19942;-82
2023/08/04 00:16:43;;;;;;;;;;;;;;;27.10;50.97;94259.13;5187447;22;20468;-79
2023/08/04 00:18:45;;;;;;;;;;;;;;;27.08;50.85;94256.72;5187500;22;19965;-78
2023/08/04 00:20:46;;;;;;;;;;;;;;;27.07;51.04;94254.31;5186690;22;20453;-78
2023/08/04 00:22:48;;;;;;;;;;;;;;;27.05;50.67;94256.47;5188447;22;19989;-78
2023/08/04 00:24:50;;;;;;;;;;;;;;;27.02;51.07;94257.81;5188363;22;20298;-78
2023/08/04 00:26:51;;;;;;;;;;;;;;;27.01;51.23;94260.78;5188273;22;20109;-78
2023/08/04 00:28:54;;;;;;;;;;;;;;;26.98;51.07;94262.13;5189453;22;20074;-79
2023/08/04 00:30:55;;;;;;;;;;;;;;;26.96;51.31;94265.09;5190454;22;20004;-78
2023/08/04 00:32:57;;;;;;;;;;;;;;;26.94;51.44;94259.16;5190114;22;20033;-78
2023/08/04 00:35:03;;;;;;;;;;;;;;;26.90;51.52;94260.00;5186120;22;19915;-78
2023/08/04 00:37:05;;;;;;;;;;;;;;;26.87;51.47;94255.97;5186751;22;20251;-80
2023/08/04 00:39:06;;;;;;;;;;;;;;;26.84;51.65;94264.56;5187463;22;19946;-78
2023/08/04 00:41:08;;;;;;;;;;;;;;;26.82;51.58;94263.22;5186765;22;20329;-78
2023/08/04 00:43:11;;;;;;;;;;;;;;;26.80;51.22;94260.00;5187295;22;19974;-76
2023/08/04 00:45:13;;;;;;;;;;;;;;;26.80;51.37;94263.47;5186627;22;20331;-79
2023/08/04 00:47:15;;;;;;;;;;;;;;;26.76;51.68;94268.63;5188436;22;19998;-79
2023/08/04 00:49:18;;;;;;;;;;;;;;;26.60;51.75;94269.69;5186972;22;20002;-80
2023/08/04 00:51:21;;;;;;;;;;;;;;;26.49;51.97;94268.88;5188613;22;20004;-78
2023/08/04 00:53:22;;;;;;;;;;;;;;;26.44;52.33;94266.19;5161285;22;19969;-79
2023/08/04 00:55:26;;;;;;;;;;;;;;;26.40;52.33;94265.13;5187365;22;19927;-79
2023/08/04 00:57:27;;;;;;;;;;;;;;;26.32;52.87;94271.00;5161812;23;20353;-78
2023/08/04 00:59:29;;;;;;;;;;;;;;;26.34;52.53;94266.19;5161275;23;19935;-80
2023/08/04 01:01:33;;;;;;;;;;;;;;;26.34;52.70;94266.19;5188349;22;19919;-79
2023/08/04 01:03:37;;;;;;;;;;;;;;;26.36;52.61;94270.19;5188131;22;20255;-78
2023/08/04 01:05:44;;;;;;;;;;;;;;;26.41;52.77;94261.34;5161503;22;19916;-79
2023/08/04 01:07:53;;;;;;;;;;;;;;;26.42;52.70;94268.34;5162332;22;19930;-78
2023/08/04 01:10:12;;;;;;;;;;;;;;;26.44;52.61;94263.50;5189080;22;19929;-79
2023/08/04 01:12:16;;;;;;;;;;;;;;;26.43;52.80;94269.13;5160966;23;20348;-79
2023/08/04 01:14:18;;;;;;;;;;;;;;;26.38;53.02;94264.56;5188325;22;19946;-79
2023/08/04 01:16:19;;;;;;;;;;;;;;;26.35;52.96;94265.91;5158818;23;19923;-81
2023/08/04 01:18:21;;;;;;;;;;;;;;;26.36;53.24;94267.53;5160444;22;20144;-78
2023/08/04 01:20:23;;;;;;;;;;;;;;;26.38;52.88;94264.56;5160744;23;19919;-77
2023/08/04 01:22:25;;;;;;;;;;;;;;;26.38;52.83;94264.56;5188768;22;19978;-79
2023/08/04 01:24:27;;;;;;;;;;;;;;;26.39;52.94;94265.38;5161466;23;19915;-78
2023/08/04 01:26:28;;;;;;;;;;;;;;;26.39;53.06;94258.13;5136443;22;20003;-78
2023/08/04 01:28:30;;;;;;;;;;;;;;;26.38;52.94;94253.84;5162171;23;20085;-78
2023/08/04 01:30:32;;;;;;;;;;;;;;;26.37;53.19;94262.94;5161179;23;19919;-78
2023/08/04 01:32:33;;;;;;;;;;;;;;;26.39;52.88;94260.00;5162815;22;19915;-79
2023/08/04 01:34:35;;;;;;;;;;;;;;;26.39;52.67;94265.38;5161947;22;20205;-77
2023/08/04 01:36:37;;;;;;;;;;;;;;;26.36;52.87;94261.34;5161583;23;20378;-81
2023/08/04 01:38:38;;;;;;;;;;;;;;;26.33;52.76;94265.38;5161456;23;19923;-77
2023/08/04 01:40:41;;;;;;;;;;;;;;;26.33;52.83;94267.28;5188423;22;19915;-78
2023/08/04 01:42:42;;;;;;;;;;;;;;;26.35;52.89;94267.81;5188595;22;19926;-77
2023/08/04 01:44:44;;;;;;;;;;;;;;;26.30;53.33;94273.16;5188448;22;20109;-78
2023/08/04 01:46:45;;;;;;;;;;;;;;;26.25;53.33;94273.97;5187156;22;19927;-78
2023/08/04 01:48:47;;;;;;;;;;;;;;;26.23;53.03;94270.75;5188250;22;19923;-75
2023/08/04 01:50:49;;;;;;;;;;;;;;;26.21;53.34;94270.19;5188252;22;19977;-80
2023/08/04 01:52:51;;;;;;;;;;;;;;;26.20;53.55;94267.78;5188542;22;20309;-78
2023/08/04 01:54:52;;;;;;;;;;;;;;;26.20;53.63;94270.47;5186224;22;20016;-79
2023/08/04 01:56:54;;;;;;;;;;;;;;;26.18;53.47;94269.91;5188616;22;19919;-79
2023/08/04 01:58:55;;;;;;;;;;;;;;;26.15;54.06;94276.63;5188504;22;19931;-78
2023/08/04 02:00:57;;;;;;;;;;;;;;;26.10;54.18;94276.63;5189883;22;19922;-80
2023/08/04 02:02:59;;;;;;;;;;;;;;;26.08;54.03;94276.09;5194598;22;20014;-79
2023/08/04 02:05:01;;;;;;;;;;;;;;;26.01;54.26;94280.91;5202274;22;19965;-79
2023/08/04 02:07:02;;;;;;;;;;;;;;;25.90;54.49;94282.78;5188684;22;20131;-79
2023/08/04 02:09:04;;;;;;;;;;;;;;;25.82;54.65;94277.91;5188552;22;19922;-78
2023/08/04 02:11:06;;;;;;;;;;;;;;;25.74;54.62;94282.69;5189080;22;19994;-77
2023/08/04 02:13:07;;;;;;;;;;;;;;;25.75;54.66;94284.31;5189969;22;19926;-79
2023/08/04 02:15:13;;;;;;;;;;;;;;;25.75;54.75;94292.34;5187672;22;19919;-78
2023/08/04 02:17:17;;;;;;;;;;;;;;;25.78;54.46;94285.66;5188974;22;19915;-78
2023/08/04 02:19:21;;;;;;;;;;;;;;;25.80;54.61;94290.75;5186944;22;19927;-77
2023/08/04 02:21:22;;;;;;;;;;;;;;;25.82;54.36;94288.63;5161930;22;20316;-78
2023/08/04 02:23:24;;;;;;;;;;;;;;;25.84;54.48;94292.66;5189278;22;19930;-78
2023/08/04 02:25:26;;;;;;;;;;;;;;;25.85;54.33;94293.44;5188459;22;20418;-77
2023/08/04 02:27:28;;;;;;;;;;;;;;;25.85;54.59;94296.94;5188471;22;19919;-78
2023/08/04 02:29:29;;;;;;;;;;;;;;;25.86;54.32;94300.44;5188914;22;20087;-79
2023/08/04 02:31:32;;;;;;;;;;;;;;;25.87;54.27;94304.72;5160340;23;19967;-75
2023/08/04 02:33:34;;;;;;;;;;;;;;;25.86;54.76;94297.75;5187536;22;19922;-79
2023/08/04 02:35:36;;;;;;;;;;;;;;;25.85;54.91;94306.88;5187807;22;20298;-79
2023/08/04 02:37:37;;;;;;;;;;;;;;;25.83;54.99;94301.75;5187634;22;19919;-78
2023/08/04 02:39:39;;;;;;;;;;;;;;;25.81;55.25;94309.25;5136539;22;19995;-78
2023/08/04 02:41:41;;;;;;;;;;;;;;;25.82;55.21;94302.84;5188094;22;19919;-78
2023/08/04 02:43:42;;;;;;;;;;;;;;;25.84;55.36;94306.06;5160461;22;19946;-79
2023/08/04 02:45:50;;;;;;;;;;;;;;;25.85;55.20;94304.97;5159667;23;20386;-78
2023/08/04 02:47:52;;;;;;;;;;;;;;;25.82;55.84;94310.88;5187361;22;19962;-78
2023/08/04 02:49:53;;;;;;;;;;;;;;;25.81;56.08;94311.16;5187159;22;19915;-78
2023/08/04 02:51:55;;;;;;;;;;;;;;;25.78;56.02;94300.94;5161635;22;20030;-80
2023/08/04 02:53:57;;;;;;;;;;;;;;;25.78;55.94;94299.06;5187515;22;19919;-79
2023/08/04 02:55:59;;;;;;;;;;;;;;;25.77;56.30;94305.53;5135887;23;19923;-78
2023/08/04 02:58:01;;;;;;;;;;;;;;;25.72;56.44;94300.91;5188926;22;20220;-78
2023/08/04 03:00:03;;;;;;;;;;;;;;;25.71;56.54;94301.19;5160876;23;19989;-80
2023/08/04 03:02:04;;;;;;;;;;;;;;;25.66;56.73;94307.34;5188633;22;19926;-77
2023/08/04 03:04:06;;;;;;;;;;;;;;;25.60;57.10;94307.56;5189883;22;19919;-78
2023/08/04 03:06:08;;;;;;;;;;;;;;;25.59;56.99;94306.78;5163555;23;19927;-77
2023/08/04 03:08:10;;;;;;;;;;;;;;;25.59;57.37;94308.66;5190466;22;19915;-79
2023/08/04 03:10:11;;;;;;;;;;;;;;;25.57;57.33;94306.22;5165272;22;19959;-78
2023/08/04 03:12:14;;;;;;;;;;;;;;;25.56;57.41;94301.16;5196251;22;19916;-80
2023/08/04 03:14:16;;;;;;;;;;;;;;;25.56;57.28;94304.63;5200231;22;19930;-77
2023/08/04 03:16:17;;;;;;;;;;;;;;;25.53;57.43;94303.28;5199627;22;19926;-79
2023/08/04 03:18:19;;;;;;;;;;;;;;;25.54;57.45;94304.88;5141587;22;20463;-78
2023/08/04 03:20:21;;;;;;;;;;;;;;;25.55;57.33;94303.00;5160049;23;19943;-77
2023/08/04 03:22:23;;;;;;;;;;;;;;;25.52;57.61;94307.03;5188598;22;19959;-81
2023/08/04 03:24:26;;;;;;;;;;;;;;;25.49;57.69;94307.56;5188418;22;20295;-79
2023/08/04 03:26:27;;;;;;;;;;;;;;;25.48;57.68;94303.25;5160833;22;20006;-79
2023/08/04 03:28:31;;;;;;;;;;;;;;;25.46;57.77;94308.06;5187648;22;20268;-79
2023/08/04 03:30:33;;;;;;;;;;;;;;;25.46;57.80;94302.69;5188046;22;20571;-78
2023/08/04 03:32:35;;;;;;;;;;;;;;;25.45;58.01;94314.50;5187774;22;20405;-79
2023/08/04 03:34:36;;;;;;;;;;;;;;;25.44;57.99;94301.34;5188483;22;19919;-78
2023/08/04 03:36:38;;;;;;;;;;;;;;;25.43;57.99;94297.88;5188757;22;20320;-79
2023/08/04 03:38:40;;;;;;;;;;;;;;;25.44;57.76;94307.50;5163554;23;19916;-79
2023/08/04 03:40:42;;;;;;;;;;;;;;;25.44;57.72;94307.50;5188025;22;19990;-78
2023/08/04 03:42:51;;;;;;;;;;;;;;;25.47;57.44;94311.56;5188653;22;19915;-78
2023/08/04 03:44:53;;;;;;;;;;;;;;;25.50;57.25;94308.34;5188321;22;20550;-79
2023/08/04 03:46:54;;;;;;;;;;;;;;;25.50;57.39;94313.72;5160317;22;19947;-78
2023/08/04 03:48:56;;;;;;;;;;;;;;;25.50;57.45;94313.72;5188651;22;19923;-79
2023/08/04 03:50:58;;;;;;;;;;;;;;;25.49;57.52;94318.28;5187324;22;20262;-80
2023/08/04 03:52:59;;;;;;;;;;;;;;;25.47;57.77;94322.31;5193299;22;19954;-78
2023/08/04 03:55:01;;;;;;;;;;;;;;;25.49;57.73;94307.56;5194827;22;19919;-77
2023/08/04 03:57:03;;;;;;;;;;;;;;;25.50;57.67;94308.34;5167198;23;19966;-79
2023/08/04 03:59:04;;;;;;;;;;;;;;;25.51;57.62;94307.28;5188366;22;20033;-78
2023/08/04 04:01:06;;;;;;;;;;;;;;;25.52;57.41;94316.94;5188426;22;20012;-79
2023/08/04 04:03:08;;;;;;;;;;;;;;;25.53;57.78;94314.00;5189391;22;19986;-79
2023/08/04 04:05:10;;;;;;;;;;;;;;;25.54;57.75;94314.81;5136197;23;19947;-80
2023/08/04 04:07:12;;;;;;;;;;;;;;;25.56;57.25;94311.88;5188914;22;20052;-81
2023/08/04 04:09:15;;;;;;;;;;;;;;;25.63;57.14;94312.44;5189177;22;19949;-80
2023/08/04 04:11:16;;;;;;;;;;;;;;;25.65;57.10;94316.47;5190768;22;19919;-80
2023/08/04 04:13:18;;;;;;;;;;;;;;;25.66;56.96;94317.25;5200098;22;20349;-78
2023/08/04 04:15:20;;;;;;;;;;;;;;;25.67;56.86;94316.22;5191805;22;19925;-79
2023/08/04 04:17:21;;;;;;;;;;;;;;;25.72;56.73;94319.69;5136579;23;19919;-81
2023/08/04 04:19:24;;;;;;;;;;;;;;;25.75;55.88;94321.88;5160304;23;20554;-79
2023/08/04 04:21:26;;;;;;;;;;;;;;;25.79;55.91;94322.16;5189477;22;20299;-80
2023/08/04 04:23:28;;;;;;;;;;;;;;;25.74;55.94;94317.56;5163554;23;19966;-80
2023/08/04 04:25:29;;;;;;;;;;;;;;;25.60;56.11;94318.31;5190575;22;20014;-78
2023/08/04 04:27:31;;;;;;;;;;;;;;;25.57;56.23;94325.00;5190299;22;19927;-80
2023/08/04 04:29:34;;;;;;;;;;;;;;;25.49;56.38;94318.28;5191244;22;19915;-82
2023/08/04 04:31:37;;;;;;;;;;;;;;;25.18;57.13;94322.63;5162897;22;19923;-81
2023/08/04 04:33:39;;;;;;;;;;;;;;;25.02;57.73;94323.63;5189988;22;19962;-81
2023/08/04 04:35:46;;;;;;;;;;;;;;;24.98;57.95;94327.88;5192094;22;19934;-80
2023/08/04 04:37:48;;;;;;;;;;;;;;;25.01;57.88;94330.84;5166087;22;20259;-79
2023/08/04 04:39:50;;;;;;;;;;;;;;;24.94;57.93;94323.03;5165509;23;19986;-78
2023/08/04 04:41:51;;;;;;;;;;;;;;;24.87;58.24;94330.50;5192514;22;19915;-80
2023/08/04 04:43:53;;;;;;;;;;;;;;;24.83;58.31;94321.34;5163031;22;19915;-79
2023/08/04 04:45:55;;;;;;;;;;;;;;;24.91;58.26;94334.28;5162052;23;20298;-81
2023/08/04 04:47:57;;;;;;;;;;;;;;;24.90;58.46;94334.53;5190295;22;19926;-80
2023/08/04 04:50:02;;;;;;;;;;;;;;;24.96;58.41;94330.81;5163909;22;19998;-78
2023/08/04 04:52:04;;;;;;;;;;;;;;;24.85;58.47;94334.50;5190995;22;20194;-79
2023/08/04 04:54:06;;;;;;;;;;;;;;;24.89;58.65;94333.72;5191091;22;19923;-79
2023/08/04 04:56:08;;;;;;;;;;;;;;;25.07;58.49;94331.69;5191899;22;19941;-80
2023/08/04 04:58:10;;;;;;;;;;;;;;;25.09;58.61;94333.03;5138522;23;20014;-80
2023/08/04 05:00:12;;;;;;;;;;;;;;;25.14;58.31;94337.63;5190172;22;19977;-80
2023/08/04 05:02:13;;;;;;;;;;;;;;;25.12;58.59;94335.22;5189766;22;19942;-79
2023/08/04 05:04:15;;;;;;;;;;;;;;;25.20;58.25;94336.63;5189382;22;19919;-81
2023/08/04 05:06:17;;;;;;;;;;;;;;;25.34;58.31;94342.34;5137524;22;19927;-80
2023/08/04 05:08:18;;;;;;;;;;;;;;;25.44;57.77;94342.38;5190164;22;19989;-80
2023/08/04 05:10:20;;;;;;;;;;;;;;;25.53;56.92;94335.47;5192681;22;19919;-83
2023/08/04 05:12:23;;;;;;;;;;;;;;;25.59;57.69;94341.66;5163828;22;19966;-81
2023/08/04 05:14:24;;;;;;;;;;;;;;;25.77;57.18;94328.84;5189736;22;19931;-79
2023/08/04 05:16:26;;;;;;;;;;;;;;;25.94;56.72;94341.03;5189274;22;19930;-79
2023/08/04 05:18:28;;;;;;;;;;;;;;;26.13;56.32;94343.19;5162365;22;20235;-79
2023/08/04 05:20:30;;;;;;;;;;;;;;;26.10;56.46;94338.38;5189351;22;20114;-78
2023/08/04 05:22:32;;;;;;;;;;;;;;;26.05;56.66;94341.84;5163962;22;20272;-80
2023/08/04 05:24:33;;;;;;;;;;;;;;;25.88;57.09;94341.25;5190129;22;20009;-78
2023/08/04 05:26:35;;;;;;;;;;;;;;;25.88;56.86;94336.69;5162971;22;19923;-81
2023/08/04 05:28:37;;;;;;;;;;;;;;;26.02;56.78;94338.88;5163548;22;19962;-79
2023/08/04 05:30:38;;;;;;;;;;;;;;;26.01;56.73;94343.44;5188260;22;19957;-80
2023/08/04 05:32:40;;;;;;;;;;;;;;;26.04;56.71;94336.75;5162523;23;20002;-81
2023/08/04 05:34:41;;;;;;;;;;;;;;;26.07;56.46;94339.72;5189319;22;19919;-80
2023/08/04 05:36:43;;;;;;;;;;;;;;;26.08;56.81;94335.94;5162857;22;19919;-79
2023/08/04 05:38:45;;;;;;;;;;;;;;;26.09;56.40;94334.06;5192510;22;19922;-81
2023/08/04 05:40:47;;;;;;;;;;;;;;;26.05;56.25;94333.81;5165527;23;19991;-82
2023/08/04 05:42:51;;;;;;;;;;;;;;;26.08;56.53;94341.31;5191615;22;19915;-82
2023/08/04 05:44:52;;;;;;;;;;;;;;;26.09;56.06;94339.44;5189807;22;19998;-78
2023/08/04 05:46:54;;;;;;;;;;;;;;;26.07;56.06;94333.50;5162393;22;20285;-82
2023/08/04 05:48:55;;;;;;;;;;;;;;;26.17;56.27;94338.91;5190380;22;19930;-81
2023/08/04 05:50:57;;;;;;;;;;;;;;;26.15;56.15;94341.06;5162161;23;19975;-80
2023/08/04 05:52:59;;;;;;;;;;;;;;;26.13;55.79;94344.00;5140044;22;19919;-81
2023/08/04 05:55:01;;;;;;;;;;;;;;;26.14;55.84;94342.94;5166454;23;20296;-82
2023/08/04 05:57:03;;;;;;;;;;;;;;;26.11;55.73;94340.81;5193739;22;20236;-81
2023/08/04 05:59:04;;;;;;;;;;;;;;;26.21;55.62;94344.56;5193111;22;19951;-83
2023/08/04 06:01:06;;;;;;;;;;;;;;;26.27;55.24;94341.63;5198325;22;20191;-80
2023/08/04 06:03:08;;;;;;;;;;;;;;;26.41;54.67;94343.78;5179174;22;20018;-82
2023/08/04 06:05:10;;;;;;;;;;;;;;;26.54;54.65;94344.09;5204383;22;19915;-79
2023/08/04 06:07:13;;;;;;;;;;;;;;;26.54;53.99;94349.47;5181772;22;19915;-81
2023/08/04 06:09:15;;;;;;;;;;;;;;;26.66;54.15;94340.38;5181367;22;19920;-80
2023/08/04 06:11:16;;;;;;;;;;;;;;;26.85;53.47;94333.38;5206639;22;19963;-79
2023/08/04 06:13:18;;;;;;;;;;;;;;;27.09;53.14;94336.28;5180554;22;19950;-79
2023/08/04 06:15:20;;;;;;;;;;;;;;;27.30;52.27;94342.47;5208693;22;19919;-82
2023/08/04 06:17:21;;;;;;;;;;;;;;;27.47;52.57;94344.03;5181101;22;19966;-80
2023/08/04 06:19:23;;;;;;;;;;;;;;;27.57;52.47;94339.44;5208031;22;19915;-80
2023/08/04 06:21:28;;;;;;;;;;;;;;;27.66;51.85;94342.38;5204713;22;19926;-79
2023/08/04 06:23:30;;;;;;;;;;;;;;;27.76;51.68;94341.53;5203669;22;19992;-80
2023/08/04 06:25:31;;;;;;;;;;;;;;;27.87;51.62;94339.63;5206385;22;20025;-78
2023/08/04 06:27:33;;;;;;;;;;;;;;;27.80;51.44;94344.47;5205288;22;20469;-83
2023/08/04 06:29:35;;;;;;;;;;;;;;;27.71;51.83;94345.03;5178196;22;20206;-82
2023/08/04 06:31:37;;;;;;;;;;;;;;;27.61;52.04;94345.06;5203127;22;19965;-81
2023/08/04 06:33:38;;;;;;;;;;;;;;;27.53;52.06;94342.94;5200026;22;19915;-80
2023/08/04 06:35:41;;;;;;;;;;;;;;;27.45;52.00;94351.56;5168083;22;19919;-79
2023/08/04 06:37:43;;;;;;;;;;;;;;;27.10;52.71;94340.63;5191951;22;20066;-80
2023/08/04 06:39:46;;;;;;;;;;;;;;;27.01;53.10;94346.78;5191731;22;19939;-80
2023/08/04 06:41:49;;;;;;;;;;;;;;;27.07;53.03;94335.75;5163789;22;19963;-81
2023/08/04 06:43:51;;;;;;;;;;;;;;;27.25;52.94;94334.41;5163712;22;19923;-80
2023/08/04 06:45:53;;;;;;;;;;;;;;;27.33;52.56;94343.81;5162572;22;20009;-81
2023/08/04 06:47:54;;;;;;;;;;;;;;;27.42;52.34;94341.38;5164898;22;19926;-79
2023/08/04 06:49:56;;;;;;;;;;;;;;;27.50;52.17;94332.75;5190245;22;20361;-79
2023/08/04 06:51:58;;;;;;;;;;;;;;;27.62;52.20;94335.09;5137402;23;20392;-80
2023/08/04 06:54:00;;;;;;;;;;;;;;;27.82;51.22;94331.56;5190208;22;19915;-80
2023/08/04 06:56:01;;;;;;;;;;;;;;;27.88;50.96;94327.78;5163511;23;20442;-82
2023/08/04 06:58:03;;;;;;;;;;;;;;;27.94;50.83;94332.03;5163795;23;20288;-82
2023/08/04 07:00:05;;;;;;;;;;;;;;;28.14;50.71;94333.84;5189867;22;19919;-80
2023/08/04 07:02:07;;;;;;;;;;;;;;;28.13;50.47;94333.00;5162463;22;19919;-79
2023/08/04 07:04:08;;;;;;;;;;;;;;;28.16;49.71;94331.69;5189551;22;19915;-79
2023/08/04 07:06:13;;;;;;;;;;;;;;;28.33;49.73;94328.59;5163835;22;19999;-83
2023/08/04 07:08:15;;;;;;;;;;;;;;;28.53;49.92;94322.31;5189763;22;19925;-81
2023/08/04 07:10:16;;;;;;;;;;;;;;;28.70;49.14;94319.22;5189867;22;19919;-84
2023/08/04 07:12:18;;;;;;;;;;;;;;;28.74;48.56;94326.44;5189805;22;19938;-79
2023/08/04 07:14:20;;;;;;;;;;;;;;;28.76;48.96;94326.16;5189205;22;19919;-79
2023/08/04 07:16:22;;;;;;;;;;;;;;;28.73;48.58;94324.03;5190230;22;19919;-79
2023/08/04 07:18:24;;;;;;;;;;;;;;;28.94;48.17;94325.47;5187849;22;19921;-80
2023/08/04 07:20:27;;;;;;;;;;;;;;;29.07;47.71;94324.00;5189069;22;19959;-81
2023/08/04 07:22:29;;;;;;;;;;;;;;;29.21;47.83;94324.16;5189245;22;19938;-81
2023/08/04 07:24:31;;;;;;;;;;;;;;;29.29;46.54;94328.94;5188891;22;20006;-82
2023/08/04 07:26:34;;;;;;;;;;;;;;;29.40;46.23;94324.22;5163215;22;19915;-79
2023/08/04 07:28:36;;;;;;;;;;;;;;;29.50;45.94;94326.81;5162758;22;19994;-79
2023/08/04 07:30:38;;;;;;;;;;;;;;;29.28;46.28;94327.34;5136402;23;19947;-81
2023/08/04 07:32:39;;;;;;;;;;;;;;;29.26;46.38;94326.03;5190105;22;20085;-80
2023/08/04 07:34:41;;;;;;;;;;;;;;;29.30;46.85;94325.16;5164274;23;19989;-81
2023/08/04 07:36:43;;;;;;;;;;;;;;;29.25;46.51;94325.19;5194084;22;19919;-80
2023/08/04 07:38:44;;;;;;;;;;;;;;;29.30;46.20;94325.16;5189506;22;19919;-84
2023/08/04 07:40:46;;;;;;;;;;;;;;;29.48;46.17;94325.50;5189848;22;20363;-81
2023/08/04 07:42:48;;;;;;;;;;;;;;;29.68;45.91;94321.78;5190940;22;19926;-82
2023/08/04 07:44:50;;;;;;;;;;;;;;;29.77;45.67;94312.78;5189874;22;19961;-81
2023/08/04 07:46:51;;;;;;;;;;;;;;;29.92;44.45;94316.38;5135919;23;19922;-82
2023/08/04 07:48:54;;;;;;;;;;;;;;;29.99;44.25;94317.63;5187885;22;19951;-81
2023/08/04 07:50:55;;;;;;;;;;;;;;;30.18;44.44;94322.25;5188493;22;19926;-80
2023/08/04 07:53:00;;;;;;;;;;;;;;;30.36;43.72;94321.47;5188575;22;19915;-80
2023/08/04 07:55:02;;;;;;;;;;;;;;;30.46;43.44;94323.22;5161578;22;19999;-80
2023/08/04 07:57:04;;;;;;;;;;;;;;;30.54;43.24;94306.31;5162064;22;19926;-81
2023/08/04 07:59:06;;;;;;;;;;;;;;;30.46;42.96;94317.81;5161581;22;20013;-80
2023/08/04 08:01:07;;;;;;;;;;;;;;;30.47;42.86;94314.00;5188684;22;20315;-81
2023/08/04 08:03:12;;;;;;;;;;;;;;;30.42;43.00;94316.81;5187562;22;19973;-82
2023/08/04 08:05:13;;;;;;;;;;;;;;;30.38;42.44;94313.88;5188596;22;19919;-80
2023/08/04 08:07:15;;;;;;;;;;;;;;;30.49;42.59;94316.44;5189610;22;19923;-83
2023/08/04 08:09:16;;;;;;;;;;;;;;;30.49;42.16;94317.22;5189837;22;19925;-85
2023/08/04 08:11:18;;;;;;;;;;;;;;;30.64;42.02;94308.06;5189215;22;20023;-83
2023/08/04 08:13:20;;;;;;;;;;;;;;;30.69;42.02;94304.47;5189314;22;19950;-80
2023/08/04 08:15:21;;;;;;;;;;;;;;;30.74;41.49;94307.09;5189579;22;20372;-82
2023/08/04 08:17:23;;;;;;;;;;;;;;;30.69;41.67;94309.88;5189711;22;19973;-79
2023/08/04 08:19:25;;;;;;;;;;;;;;;30.72;41.54;94310.13;5187253;22;19995;-81
2023/08/04 08:21:28;;;;;;;;;;;;;;;30.65;41.70;94308.88;5162502;22;19916;-81
2023/08/04 08:23:31;;;;;;;;;;;;;;;30.49;42.04;94308.31;5189069;22;19950;-82
2023/08/04 08:25:33;;;;;;;;;;;;;;;30.62;41.42;94300.25;5188745;22;20018;-79
2023/08/04 08:27:35;;;;;;;;;;;;;;;30.73;41.39;94306.28;5190944;22;20196;-80
2023/08/04 08:29:41;;;;;;;;;;;;;;;30.85;40.97;94297.75;5164442;23;19920;-79
2023/08/04 08:31:42;;;;;;;;;;;;;;;30.95;41.13;94294.88;5200912;22;20270;-79
2023/08/04 08:33:44;;;;;;;;;;;;;;;31.06;40.88;94303.59;5164954;22;20355;-83
2023/08/04 08:35:46;;;;;;;;;;;;;;;31.19;40.80;94293.91;5191070;22;19954;-79
2023/08/04 08:37:48;;;;;;;;;;;;;;;31.32;40.36;94300.44;5163962;22;19994;-79
2023/08/04 08:39:49;;;;;;;;;;;;;;;31.31;40.13;94301.56;5192015;22;20220;-80
2023/08/04 08:41:51;;;;;;;;;;;;;;;31.19;39.81;94297.44;5196749;22;19926;-80
2023/08/04 08:43:54;;;;;;;;;;;;;;;31.15;40.28;94303.75;5199771;22;19938;-80
2023/08/04 08:45:56;;;;;;;;;;;;;;;31.35;40.23;94300.66;5198503;22;19999;-82
2023/08/04 08:47:58;;;;;;;;;;;;;;;31.60;39.88;94291.28;5166459;23;19923;-78
2023/08/04 08:50:00;;;;;;;;;;;;;;;31.84;39.51;94299.16;5187907;22;19931;-79
2023/08/04 08:52:02;;;;;;;;;;;;;;;32.07;39.70;94295.75;5189280;22;19941;-80
2023/08/04 08:54:04;;;;;;;;;;;;;;;32.25;38.79;94289.41;5161559;22;19999;-80
2023/08/04 08:56:09;;;;;;;;;;;;;;;32.16;38.06;94286.59;5161700;23;20326;-81
2023/08/04 08:58:10;;;;;;;;;;;;;;;31.93;38.62;94282.22;5163048;22;19991;-80
2023/08/04 09:00:12;;;;;;;;;;;;;;;31.97;38.38;94283.22;5135941;23;19920;-78
2023/08/04 09:02:14;;;;;;;;;;;;;;;31.90;38.64;94280.09;5188224;22;20241;-80
2023/08/04 09:04:16;;;;;;;;;;;;;;;31.86;38.66;94281.81;5136980;23;20527;-78
2023/08/04 09:06:18;;;;;;;;;;;;;;;32.02;38.30;94277.69;5162922;22;19923;-80
2023/08/04 09:08:19;;;;;;;;;;;;;;;32.23;39.10;94269.94;5163960;22;20017;-79
2023/08/04 09:10:21;;;;;;;;;;;;;;;32.44;38.81;94271.06;5163791;23;19920;-81
2023/08/04 09:12:25;;;;;;;;;;;;;;;32.65;38.07;94265.16;5163359;22;20074;-79
2023/08/04 09:14:27;;;;;;;;;;;;;;;32.78;37.81;94266.19;5164115;22;19935;-76
2023/08/04 09:16:39;;;;;;;;;;;;;;;32.89;37.67;94278.41;5189039;22;19946;-80
2023/08/04 09:18:42;;;;;;;;;;;;;;;32.96;37.78;94265.19;5189239;22;20233;-82
2023/08/04 09:20:44;;;;;;;;;;;;;;;33.02;37.93;94269.38;5189801;22;20331;-80
2023/08/04 09:22:45;;;;;;;;;;;;;;;33.16;37.47;94268.50;5190643;22;19997;-80
2023/08/04 09:24:53;;;;;;;;;;;;;;;33.24;37.24;94268.56;5189268;22;20013;-80
2023/08/04 09:26:55;;;;;;;;;;;;;;;33.26;37.04;94265.53;5189726;22;20242;-81
2023/08/04 09:29:04;;;;;;;;;;;;;;;33.34;37.08;94270.22;5161952;22;19998;-80
2023/08/04 09:31:06;;;;;;;;;;;;;;;33.31;36.59;94264.59;5188928;22;19929;-81
2023/08/04 09:33:08;;;;;;;;;;;;;;;33.02;37.41;94260.44;5188780;22;19998;-79
2023/08/04 09:35:11;;;;;;;;;;;;;;;32.92;37.44;94258.00;5189768;22;19915;-81
2023/08/04 09:37:15;;;;;;;;;;;;;;;32.87;37.37;94260.81;5161957;23;19990;-80
2023/08/04 09:39:17;;;;;;;;;;;;;;;32.51;37.91;94246.22;5189331;22;19926;-79
2023/08/04 09:41:19;;;;;;;;;;;;;;;32.51;38.52;94245.44;5189916;22;19919;-83
2023/08/04 09:43:20;;;;;;;;;;;;;;;32.66;38.37;94247.00;5189942;22;19986;-80
2023/08/04 09:45:22;;;;;;;;;;;;;;;32.55;38.19;94249.94;5161553;22;20018;-81
2023/08/04 09:47:27;;;;;;;;;;;;;;;32.73;38.18;94250.84;5189167;22;20017;-80
2023/08/04 09:49:29;;;;;;;;;;;;;;;32.86;37.60;94257.31;5161053;22;19962;-81
2023/08/04 09:51:31;;;;;;;;;;;;;;;32.94;37.91;94245.72;5164324;23;19958;-81
2023/08/04 09:53:39;;;;;;;;;;;;;;;33.16;37.84;94236.75;5166822;22;20014;-79
2023/08/04 09:55:40;;;;;;;;;;;;;;;33.37;37.49;94247.06;5163599;22;19983;-81
2023/08/04 09:57:42;;;;;;;;;;;;;;;33.52;36.76;94238.47;5189503;22;19915;-84
2023/08/04 09:59:44;;;;;;;;;;;;;;;33.64;36.63;94246.03;5163568;22;20297;-82
2023/08/04 10:01:45;;;;;;;;;;;;;;;33.76;36.06;94232.66;5136452;23;19974;-82
2023/08/04 10:03:53;;;;;;;;;;;;;;;33.81;35.94;94231.69;5162799;22;20009;-82
2023/08/04 10:06:06;;;;;;;;;;;;;;;33.84;35.62;94228.34;5138318;22;19923;-83
2023/08/04 10:08:07;;;;;;;;;;;;;;;33.88;35.81;94228.50;5165033;22;20518;-83
2023/08/04 10:10:09;;;;;;;;;;;;;;;33.95;35.44;94228.84;5137582;22;20328;-78
2023/08/04 10:12:12;;;;;;;;;;;;;;;33.88;34.51;94218.44;5137516;22;20513;-83
2023/08/04 10:14:15;;;;;;;;;;;;;;;33.83;34.61;94219.38;5190074;22;19922;-82
2023/08/04 10:16:18;;;;;;;;;;;;;;;33.67;34.73;94225.63;5162921;22;19967;-80
2023/08/04 10:18:20;;;;;;;;;;;;;;;33.79;34.97;94229.28;5161938;22;19974;-81
2023/08/04 10:20:22;;;;;;;;;;;;;;;33.99;34.55;94224.38;5189165;22;19939;-80
2023/08/04 10:22:24;;;;;;;;;;;;;;;33.99;34.33;94225.16;5162480;22;19919;-80
2023/08/04 10:24:26;;;;;;;;;;;;;;;34.03;34.14;94215.25;5190852;22;20017;-79
2023/08/04 10:26:31;;;;;;;;;;;;;;;33.90;34.34;94221.63;5161377;23;19966;-80
2023/08/04 10:28:33;;;;;;;;;;;;;;;33.99;33.43;94218.94;5189143;22;19942;-80
2023/08/04 10:30:35;;;;;;;;;;;;;;;34.11;33.92;94227.25;5136596;22;19916;-81
2023/08/04 10:32:50;;;;;;;;;;;;;;;34.29;33.14;94219.13;5189563;22;19919;-81
2023/08/04 10:34:54;;;;;;;;;;;;;;;34.30;33.23;94218.00;5189732;22;20343;-81
2023/08/04 10:37:09;;;;;;;;;;;;;;;34.19;33.22;94218.31;5191344;22;20224;-81